Terminal Aerodrome Forecast
Issued by NWS Sterling, VA

Home | Current Version | Previous Version | Text Only | Print | Product List | Glossary On
Versions: 1 2 3 4 5 6 7 8 9 10 11 12 13 14 15 16 17 18 19 20 21
734
FTUS41 KLWX 232052 AAA
TAFBWI
TAF AMD
KBWI 232052Z 2321/2424 VRB04KT P6SM SCT200
     FM241100 19005KT P6SM BKN080
     FM241800 20009G16KT P6SM BKN070=

USA.gov is the U.S. government's official web portal to all federal, state and local government web resources and services.